Time;durP1;ratioP1;P1;durP2;ratioP2;P2;SDS_P1;SDS_P2;PMS_P1;PMS_P2;Temp;Humidity;BMP_temperature;BMP_pressure;BME280_temperature;BME280_humidity;BME280_pressure;Samples;Min_cycle;Max_cycle;Signal;HPM_P1;HPM_P2
2022/09/04 00:02:36;;;;;;;;;;;;;;;15.98;66.34;101468.06;4993334;28;19930;-73
2022/09/04 00:05:10;;;;;;;;;;;;;;;15.94;66.49;101468.31;4992522;28;19921;-73
2022/09/04 00:07:56;;;;;;;;;;;;;;;15.89;66.42;101460.53;4980555;28;19926;-73
2022/09/04 00:10:24;;;;;;;;;;;;;;;15.86;66.63;101464.25;5009754;28;19930;-72
2022/09/04 00:12:58;;;;;;;;;;;;;;;15.83;66.44;101461.78;5011489;28;20012;-73
2022/09/04 00:15:33;;;;;;;;;;;;;;;15.80;66.05;101461.94;4992389;28;20503;-73
2022/09/04 00:18:02;;;;;;;;;;;;;;;15.77;66.40;101470.13;4991579;28;20294;-72
2022/09/04 00:20:27;;;;;;;;;;;;;;;15.76;66.80;101465.75;4976394;28;20479;-73
2022/09/04 00:23:04;;;;;;;;;;;;;;;15.75;66.89;101472.03;4978086;28;19926;-72
2022/09/04 00:25:42;;;;;;;;;;;;;;;15.72;66.80;101469.53;5008227;28;19965;-72
2022/09/04 00:28:26;;;;;;;;;;;;;;;15.71;66.93;101476.69;4978198;28;20306;-72
2022/09/04 00:30:54;;;;;;;;;;;;;;;15.69;67.15;101469.72;4977094;28;19930;-72
2022/09/04 00:33:24;;;;;;;;;;;;;;;15.69;67.19;101478.56;5010226;28;19929;-72
2022/09/04 00:35:54;;;;;;;;;;;;;;;15.69;67.49;101472.38;5010719;28;19930;-72
2022/09/04 00:38:39;;;;;;;;;;;;;;;15.67;67.32;101471.59;4977973;28;19930;-72
2022/09/04 00:41:14;;;;;;;;;;;;;;;15.67;67.28;101476.94;4978844;28;19937;-73
2022/09/04 00:43:40;;;;;;;;;;;;;;;15.65;67.69;101486.84;5009659;28;19926;-72
2022/09/04 00:46:08;;;;;;;;;;;;;;;15.63;67.88;101486.09;4976033;28;20088;-73
2022/09/04 00:48:39;;;;;;;;;;;;;;;15.61;67.89;101494.16;4978492;28;19926;-73
2022/09/04 00:51:23;;;;;;;;;;;;;;;15.58;67.79;101495.19;4975647;28;19987;-73
2022/09/04 00:53:49;;;;;;;;;;;;;;;15.56;67.32;101494.44;4976545;28;20028;-72
2022/09/04 00:56:17;;;;;;;;;;;;;;;15.54;67.85;101496.34;4978158;28;19930;-72
2022/09/04 00:59:04;;;;;;;;;;;;;;;15.53;66.94;101502.59;5010343;28;19926;-72
2022/09/04 01:01:30;;;;;;;;;;;;;;;15.52;68.38;101500.03;5008459;28;19955;-73
2022/09/04 01:04:13;;;;;;;;;;;;;;;15.49;68.33;101506.41;5008738;28;19968;-73
2022/09/04 01:06:48;;;;;;;;;;;;;;;15.44;67.80;101506.66;4978168;28;20041;-73
2022/09/04 01:09:43;;;;;;;;;;;;;;;15.42;67.35;101510.34;4991618;28;19929;-72
2022/09/04 01:12:11;;;;;;;;;;;;;;;15.38;68.49;101512.34;4977992;28;19925;-72
2022/09/04 01:14:49;;;;;;;;;;;;;;;15.36;67.95;101516.03;4974285;28;20401;-73
2022/09/04 01:17:15;;;;;;;;;;;;;;;15.34;67.51;101522.31;5008134;28;19965;-73
2022/09/04 01:19:46;;;;;;;;;;;;;;;15.30;68.33;101528.75;4974629;28;20052;-73
2022/09/04 01:22:11;;;;;;;;;;;;;;;15.27;68.20;101528.06;4991331;28;21114;-73
2022/09/04 01:24:57;;;;;;;;;;;;;;;15.23;68.29;101530.03;5006292;28;19926;-73
2022/09/04 01:27:26;;;;;;;;;;;;;;;15.19;68.54;101532.00;4974895;28;19929;-72
2022/09/04 01:29:55;;;;;;;;;;;;;;;15.17;68.44;101538.38;4992689;28;19932;-72
2022/09/04 01:32:21;;;;;;;;;;;;;;;15.15;68.66;101534.94;4992937;28;20063;-73
2022/09/04 01:34:58;;;;;;;;;;;;;;;15.12;69.33;101541.28;4978468;28;20044;-72
2022/09/04 01:37:29;;;;;;;;;;;;;;;15.11;69.84;101541.34;5005537;28;20040;-73
2022/09/04 01:40:02;;;;;;;;;;;;;;;15.07;70.24;101538.88;4976221;28;19930;-72
2022/09/04 01:42:51;;;;;;;;;;;;;;;15.04;69.86;101536.34;5009210;28;19929;-73
2022/09/04 01:45:19;;;;;;;;;;;;;;;15.03;70.09;101539.97;4970362;28;20437;-73
2022/09/04 01:47:45;;;;;;;;;;;;;;;15.03;70.17;101539.13;5008250;28;19929;-73
2022/09/04 01:50:15;;;;;;;;;;;;;;;15.00;70.26;101541.94;5009688;28;20625;-73
2022/09/04 01:53:07;;;;;;;;;;;;;;;14.98;70.26;101543.81;4976440;28;19926;-74
2022/09/04 01:55:35;;;;;;;;;;;;;;;14.96;70.66;101543.91;4964679;28;20282;-73
2022/09/04 01:58:13;;;;;;;;;;;;;;;14.93;70.54;101546.75;5005856;28;20696;-73
2022/09/04 02:00:58;;;;;;;;;;;;;;;14.89;70.29;101546.03;4989165;28;19934;-73
2022/09/04 02:03:26;;;;;;;;;;;;;;;14.86;70.09;101546.19;4977835;28;20021;-73
2022/09/04 02:06:00;;;;;;;;;;;;;;;14.85;71.09;101546.25;5008863;28;19936;-73
2022/09/04 02:08:25;;;;;;;;;;;;;;;14.82;71.03;101543.78;5010222;28;19991;-73
2022/09/04 02:10:55;;;;;;;;;;;;;;;14.80;71.19;101542.06;4978843;28;20425;-73
2022/09/04 02:13:30;;;;;;;;;;;;;;;14.77;72.15;101547.53;5006816;28;20407;-73
2022/09/04 02:16:18;;;;;;;;;;;;;;;14.76;72.09;101548.47;4976047;28;19926;-73
2022/09/04 02:18:47;;;;;;;;;;;;;;;14.73;71.61;101539.75;5010620;28;19988;-73
2022/09/04 02:21:27;;;;;;;;;;;;;;;14.71;71.62;101554.97;4981310;28;20313;-74
2022/09/04 02:23:55;;;;;;;;;;;;;;;14.65;71.58;101543.66;5012746;28;19930;-73
2022/09/04 02:26:41;;;;;;;;;;;;;;;14.63;71.08;101539.34;4980679;28;20798;-73
2022/09/04 02:29:15;;;;;;;;;;;;;;;14.61;72.04;101543.91;4979431;28;19954;-73
2022/09/04 02:31:43;;;;;;;;;;;;;;;14.57;71.96;101537.88;4980093;28;19926;-73
2022/09/04 02:34:19;;;;;;;;;;;;;;;14.56;72.32;101552.16;4991490;28;19960;-73
2022/09/04 02:37:06;;;;;;;;;;;;;;;14.55;72.11;101552.22;4978756;28;19941;-72
2022/09/04 02:39:42;;;;;;;;;;;;;;;14.52;71.87;101553.22;5011083;28;19930;-73
2022/09/04 02:42:16;;;;;;;;;;;;;;;14.50;71.41;101552.47;4992358;28;20475;-73
2022/09/04 02:44:47;;;;;;;;;;;;;;;14.48;71.81;101548.97;5008470;28;19926;-73
2022/09/04 02:47:23;;;;;;;;;;;;;;;14.48;71.90;101557.84;5011746;28;19976;-73
2022/09/04 02:49:55;;;;;;;;;;;;;;;14.45;71.63;101563.34;5011029;28;19926;-73
2022/09/04 02:52:23;;;;;;;;;;;;;;;14.42;71.54;101554.66;4976866;28;20004;-73
2022/09/04 02:54:51;;;;;;;;;;;;;;;14.40;72.02;101560.06;4979393;28;20332;-73
2022/09/04 02:57:38;;;;;;;;;;;;;;;14.37;72.32;101565.50;5010061;28;19926;-73
2022/09/04 03:00:18;;;;;;;;;;;;;;;14.33;72.29;101554.16;4976661;28;19925;-72
2022/09/04 03:02:49;;;;;;;;;;;;;;;14.33;72.49;101553.31;4993152;28;20403;-73
2022/09/04 03:05:18;;;;;;;;;;;;;;;14.31;72.41;101557.81;4979914;28;19933;-73
2022/09/04 03:07:46;;;;;;;;;;;;;;;14.29;72.54;101557.94;4980654;28;19926;-72
2022/09/04 03:10:12;;;;;;;;;;;;;;;14.27;72.90;101554.47;5012489;28;19937;-72
2022/09/04 03:12:37;;;;;;;;;;;;;;;14.25;72.96;101554.56;5011710;28;19929;-72
2022/09/04 03:15:08;;;;;;;;;;;;;;;14.25;73.27;101556.34;4979906;28;20395;-72
2022/09/04 03:17:37;;;;;;;;;;;;;;;14.23;73.12;101563.56;5010633;28;19937;-72
2022/09/04 03:20:05;;;;;;;;;;;;;;;14.22;73.08;101567.16;5011627;28;19929;-72
2022/09/04 03:22:39;;;;;;;;;;;;;;;14.20;73.40;101564.56;5009869;28;19996;-72
2022/09/04 03:25:09;;;;;;;;;;;;;;;14.19;73.61;101564.63;4979041;28;20384;-72
2022/09/04 03:27:34;;;;;;;;;;;;;;;14.17;73.88;101567.34;4991999;28;19929;-72
2022/09/04 03:30:03;;;;;;;;;;;;;;;14.16;73.71;101565.66;4976704;28;20212;-72
2022/09/04 03:32:31;;;;;;;;;;;;;;;14.15;73.08;101574.56;4977805;28;19949;-72
2022/09/04 03:35:15;;;;;;;;;;;;;;;14.12;73.42;101580.91;4978016;28;20425;-72
2022/09/04 03:37:56;;;;;;;;;;;;;;;14.13;73.05;101579.13;4991883;28;19933;-72
2022/09/04 03:40:41;;;;;;;;;;;;;;;14.11;73.33;101584.50;5011502;28;19930;-72
2022/09/04 03:43:26;;;;;;;;;;;;;;;14.10;74.25;101595.22;4991215;28;20028;-73
2022/09/04 03:46:10;;;;;;;;;;;;;;;14.08;73.75;101587.34;4978562;28;19996;-72
2022/09/04 03:48:55;;;;;;;;;;;;;;;14.06;73.33;101599.00;4976026;28;20024;-73
2022/09/04 03:51:39;;;;;;;;;;;;;;;14.05;73.72;101597.28;4992918;28;19937;-73
2022/09/04 03:54:16;;;;;;;;;;;;;;;14.05;73.72;101597.28;4977712;28;19929;-73
2022/09/04 03:56:50;;;;;;;;;;;;;;;14.05;73.28;101603.44;4979242;28;19930;-72
2022/09/04 03:59:23;;;;;;;;;;;;;;;14.04;73.71;101596.41;4990154;28;21312;-72
2022/09/04 04:01:51;;;;;;;;;;;;;;;14.04;73.99;101595.53;4989170;28;19949;-72
2022/09/04 04:04:35;;;;;;;;;;;;;;;14.05;73.58;101599.94;4978755;28;19926;-72
2022/09/04 04:07:09;;;;;;;;;;;;;;;14.04;73.79;101599.06;4976711;28;19930;-72
2022/09/04 04:09:44;;;;;;;;;;;;;;;14.02;74.83;101605.38;4980435;28;19997;-72
2022/09/04 04:12:11;;;;;;;;;;;;;;;14.01;74.32;101601.00;4980023;28;20465;-73
2022/09/04 04:14:41;;;;;;;;;;;;;;;14.00;74.18;101608.13;4978569;28;20056;-72
2022/09/04 04:17:12;;;;;;;;;;;;;;;13.99;74.44;101604.63;4978532;28;19952;-72
2022/09/04 04:19:46;;;;;;;;;;;;;;;14.00;74.12;101608.13;4977950;28;19933;-73
2022/09/04 04:22:21;;;;;;;;;;;;;;;13.99;74.79;101609.06;5009956;28;19929;-72
2022/09/04 04:24:56;;;;;;;;;;;;;;;13.99;74.61;101609.06;4977104;28;19937;-72
2022/09/04 04:27:21;;;;;;;;;;;;;;;13.99;75.07;101607.28;4980287;28;19969;-72
2022/09/04 04:30:03;;;;;;;;;;;;;;;14.00;75.23;101605.44;4979324;28;20020;-73
2022/09/04 04:32:47;;;;;;;;;;;;;;;14.01;75.54;101611.66;4979809;28;19925;-73
2022/09/04 04:35:23;;;;;;;;;;;;;;;14.00;74.81;101616.09;4976375;28;19933;-73
2022/09/04 04:37:54;;;;;;;;;;;;;;;13.99;74.83;101619.72;5008682;28;20064;-73
2022/09/04 04:40:29;;;;;;;;;;;;;;;13.99;75.13;101623.25;4992258;28;19929;-72
2022/09/04 04:43:03;;;;;;;;;;;;;;;13.99;74.37;101630.34;4979804;28;19977;-73
2022/09/04 04:45:49;;;;;;;;;;;;;;;13.96;74.12;101628.69;4977500;28;19930;-72
2022/09/04 04:48:35;;;;;;;;;;;;;;;13.96;74.89;101622.53;4990659;28;21697;-72
2022/09/04 04:51:19;;;;;;;;;;;;;;;13.95;74.98;101629.63;5010323;28;19929;-73
2022/09/04 04:53:55;;;;;;;;;;;;;;;13.97;76.43;101630.44;4979140;28;19930;-72
2022/09/04 04:56:28;;;;;;;;;;;;;;;13.95;75.80;101629.63;4991345;28;19930;-72
2022/09/04 04:59:01;;;;;;;;;;;;;;;13.96;75.76;101638.50;5010178;28;19933;-73
2022/09/04 05:01:29;;;;;;;;;;;;;;;13.94;75.18;101649.22;5007694;28;19936;-73
2022/09/04 05:04:14;;;;;;;;;;;;;;;13.93;75.07;101652.81;5010222;28;19929;-72
2022/09/04 05:06:40;;;;;;;;;;;;;;;13.92;75.50;101656.41;4978242;28;20380;-73
2022/09/04 05:09:10;;;;;;;;;;;;;;;13.92;75.50;101659.06;4978120;28;20032;-72
2022/09/04 05:11:36;;;;;;;;;;;;;;;13.93;75.59;101663.47;4978743;28;19925;-73
2022/09/04 05:14:10;;;;;;;;;;;;;;;13.93;75.02;101673.22;4978843;28;19933;-72
2022/09/04 05:16:36;;;;;;;;;;;;;;;13.95;75.21;101666.06;4977171;28;19925;-73
2022/09/04 05:19:08;;;;;;;;;;;;;;;13.96;75.14;101675.78;4989049;28;19926;-72
2022/09/04 05:21:36;;;;;;;;;;;;;;;13.97;74.89;101669.50;5007698;28;19929;-72
2022/09/04 05:24:21;;;;;;;;;;;;;;;13.99;75.15;101678.28;5009109;28;19932;-73
2022/09/04 05:26:46;;;;;;;;;;;;;;;13.99;75.24;101673.81;5007460;28;21269;-73
2022/09/04 05:29:19;;;;;;;;;;;;;;;14.03;75.60;101689.63;4977814;28;19937;-73
2022/09/04 05:31:57;;;;;;;;;;;;;;;14.06;75.78;101689.50;4991204;28;19926;-73
2022/09/04 05:34:55;;;;;;;;;;;;;;;14.07;75.26;101699.22;4978293;28;19922;-73
2022/09/04 05:37:39;;;;;;;;;;;;;;;14.10;76.12;101701.72;4975032;28;19996;-73
2022/09/04 05:40:22;;;;;;;;;;;;;;;14.12;76.77;101697.22;4977560;28;19937;-73
2022/09/04 05:43:06;;;;;;;;;;;;;;;14.15;76.83;101698.88;4978223;28;19930;-72
2022/09/04 05:45:38;;;;;;;;;;;;;;;14.17;76.32;101703.16;4976524;28;19937;-73
2022/09/04 05:48:15;;;;;;;;;;;;;;;14.20;76.36;101695.06;5010344;28;19937;-72
2022/09/04 05:50:47;;;;;;;;;;;;;;;14.23;76.55;101702.88;4992694;28;19934;-73
2022/09/04 05:53:27;;;;;;;;;;;;;;;14.25;75.86;101706.34;5013423;28;20419;-73
2022/09/04 05:55:56;;;;;;;;;;;;;;;14.30;75.42;101708.78;5013721;28;19969;-72
2022/09/04 05:58:40;;;;;;;;;;;;;;;14.33;75.90;101705.97;4982226;28;19936;-72
2022/09/04 06:01:12;;;;;;;;;;;;;;;14.37;75.78;101706.69;5011963;28;20017;-72
2022/09/04 06:03:56;;;;;;;;;;;;;;;14.40;75.58;101709.22;4994457;28;20389;-73
2022/09/04 06:06:22;;;;;;;;;;;;;;;14.44;76.07;101716.09;4982513;28;19934;-73
2022/09/04 06:09:05;;;;;;;;;;;;;;;14.47;75.72;101715.09;4982439;28;19937;-73
2022/09/04 06:11:50;;;;;;;;;;;;;;;14.53;76.25;101720.13;4982742;28;19926;-72
2022/09/04 06:14:27;;;;;;;;;;;;;;;14.59;76.05;101727.00;4981745;28;20065;-73
2022/09/04 06:17:05;;;;;;;;;;;;;;;14.62;75.98;101724.16;4981434;28;19939;-73
2022/09/04 06:19:43;;;;;;;;;;;;;;;14.68;75.52;101729.19;4982510;28;19930;-73
2022/09/04 06:22:22;;;;;;;;;;;;;;;14.75;75.82;101732.44;4993058;28;20013;-73
2022/09/04 06:25:06;;;;;;;;;;;;;;;14.79;75.75;101721.59;5012906;28;19979;-73
2022/09/04 06:27:32;;;;;;;;;;;;;;;14.87;75.63;101733.66;4980366;28;20008;-73
2022/09/04 06:30:00;;;;;;;;;;;;;;;14.92;75.75;101724.50;5011659;28;19925;-72
2022/09/04 06:32:46;;;;;;;;;;;;;;;15.00;76.42;101734.78;4982585;28;19930;-73
2022/09/04 06:35:17;;;;;;;;;;;;;;;15.05;75.54;101732.72;4981830;28;19933;-74
2022/09/04 06:37:52;;;;;;;;;;;;;;;15.13;75.82;101739.47;4980875;28;19926;-74
2022/09/04 06:40:32;;;;;;;;;;;;;;;15.23;75.61;101743.41;4981741;28;20154;-74
2022/09/04 06:43:02;;;;;;;;;;;;;;;15.41;75.22;101743.41;5013331;28;20004;-74
2022/09/04 06:45:27;;;;;;;;;;;;;;;15.60;74.63;101743.31;5012561;28;19926;-74
2022/09/04 06:48:02;;;;;;;;;;;;;;;15.77;74.80;101752.22;4981881;28;19930;-74
2022/09/04 06:50:34;;;;;;;;;;;;;;;15.91;73.89;101754.16;4981916;28;19934;-74
2022/09/04 06:53:05;;;;;;;;;;;;;;;15.99;73.31;101749.31;4981783;28;19949;-74
2022/09/04 06:55:50;;;;;;;;;;;;;;;16.04;72.92;101757.06;4980310;28;19925;-74
2022/09/04 06:58:18;;;;;;;;;;;;;;;16.06;72.70;101756.03;4980416;28;20548;-73
2022/09/04 07:00:52;;;;;;;;;;;;;;;16.12;73.27;101755.69;4978051;28;19936;-73
2022/09/04 07:03:26;;;;;;;;;;;;;;;16.21;73.93;101753.47;5007983;28;19929;-73
2022/09/04 07:05:55;;;;;;;;;;;;;;;16.29;73.25;101749.44;4978049;28;19933;-73
2022/09/04 07:08:26;;;;;;;;;;;;;;;16.39;73.34;101748.91;4977859;28;20436;-84
2022/09/04 07:10:55;;;;;;;;;;;;;;;16.47;72.61;101749.38;4979971;28;19957;-77
2022/09/04 07:13:32;;;;;;;;;;;;;;;16.56;72.52;101755.97;5010224;28;19937;-77
2022/09/04 07:16:08;;;;;;;;;;;;;;;16.63;72.78;101756.50;4984682;28;19930;-77
2022/09/04 07:19:09;;;;;;;;;;;;;;;16.72;72.60;101753.31;4994728;28;19932;-77
2022/09/04 07:21:39;;;;;;;;;;;;;;;16.80;72.29;101750.19;4976259;28;20412;-78
2022/09/04 07:24:05;;;;;;;;;;;;;;;16.86;72.00;101752.53;4966206;28;19937;-77
2022/09/04 07:26:49;;;;;;;;;;;;;;;16.91;72.26;101758.47;4979717;28;19975;-77
2022/09/04 07:29:28;;;;;;;;;;;;;;;16.99;72.24;101770.53;4979898;28;19965;-78
2022/09/04 07:32:02;;;;;;;;;;;;;;;17.07;72.61;101769.19;4992632;28;19930;-77
2022/09/04 07:34:37;;;;;;;;;;;;;;;17.15;71.98;101776.72;5012497;28;20504;-77
2022/09/04 07:37:16;;;;;;;;;;;;;;;17.22;71.37;101775.41;4980268;28;19941;-77
2022/09/04 07:39:47;;;;;;;;;;;;;;;17.29;71.48;101770.59;4991864;28;19929;-77
2022/09/04 07:42:21;;;;;;;;;;;;;;;17.35;71.46;101775.56;4979349;28;19926;-85
2022/09/04 07:44:58;;;;;;;;;;;;;;;17.43;71.98;101769.75;4981379;28;19933;-85
2022/09/04 07:47:43;;;;;;;;;;;;;;;17.50;71.03;101787.16;4979257;28;20019;-85
2022/09/04 07:50:17;;;;;;;;;;;;;;;17.58;70.90;101778.66;5011373;28;19936;-84
2022/09/04 07:53:06;;;;;;;;;;;;;;;17.68;70.35;101773.63;5013347;28;19937;-84
2022/09/04 07:55:37;;;;;;;;;;;;;;;17.79;69.42;101775.63;4985513;28;19929;-84
2022/09/04 07:58:19;;;;;;;;;;;;;;;17.87;69.41;101780.53;5013491;28;19933;-85
2022/09/04 08:01:03;;;;;;;;;;;;;;;17.98;69.52;101782.53;5007493;28;20017;-72
2022/09/04 08:03:35;;;;;;;;;;;;;;;18.09;69.34;101787.25;4979757;28;20080;-71
2022/09/04 08:06:04;;;;;;;;;;;;;;;18.17;68.70;101777.78;4993052;28;20052;-72
2022/09/04 08:08:41;;;;;;;;;;;;;;;18.26;68.93;101781.69;4979969;28;19933;-72
2022/09/04 08:11:06;;;;;;;;;;;;;;;18.37;69.19;101782.84;5010910;28;20601;-72
2022/09/04 08:13:50;;;;;;;;;;;;;;;18.50;68.82;101786.44;4980114;28;19941;-72
2022/09/04 08:16:19;;;;;;;;;;;;;;;18.63;68.88;101791.03;4979765;28;19972;-72
2022/09/04 08:18:51;;;;;;;;;;;;;;;18.75;68.34;101787.56;4980159;28;20342;-72
2022/09/04 08:21:17;;;;;;;;;;;;;;;18.86;68.40;101787.69;4979508;28;19932;-72
2022/09/04 08:24:00;;;;;;;;;;;;;;;18.99;68.70;101794.91;4978321;28;19925;-78
2022/09/04 08:26:26;;;;;;;;;;;;;;;19.13;68.08;101797.56;4980610;28;20395;-79
2022/09/04 08:29:11;;;;;;;;;;;;;;;19.25;68.10;101803.09;4980268;28;20029;-79
2022/09/04 08:31:41;;;;;;;;;;;;;;;19.41;68.57;101809.13;4979147;28;19930;-79
2022/09/04 08:34:26;;;;;;;;;;;;;;;19.53;68.29;101807.47;5011149;28;19980;-79
2022/09/04 08:37:11;;;;;;;;;;;;;;;19.71;67.80;101814.34;4975197;28;19988;-78
2022/09/04 08:39:52;;;;;;;;;;;;;;;19.90;67.81;101820.16;4991995;28;20300;-79
2022/09/04 08:42:29;;;;;;;;;;;;;;;20.05;67.78;101822.78;5007203;28;19929;-85
2022/09/04 08:45:14;;;;;;;;;;;;;;;20.18;67.26;101812.88;5007731;28;19926;-79
2022/09/04 08:47:55;;;;;;;;;;;;;;;20.33;66.86;101827.03;4978447;28;20301;-79
2022/09/04 08:50:24;;;;;;;;;;;;;;;20.49;67.13;101813.34;4979688;28;20036;-78
2022/09/04 08:52:52;;;;;;;;;;;;;;;20.63;66.73;101823.09;4979705;28;19937;-78
2022/09/04 08:55:37;;;;;;;;;;;;;;;20.75;66.28;101825.84;5010841;28;20476;-80
2022/09/04 08:58:22;;;;;;;;;;;;;;;20.92;66.49;101834.53;4978553;28;19925;-77
2022/09/04 09:00:54;;;;;;;;;;;;;;;21.08;65.82;101827.03;5009627;28;20384;-81
2022/09/04 09:03:38;;;;;;;;;;;;;;;21.24;66.19;101826.75;4991607;28;19936;-78
2022/09/04 09:06:07;;;;;;;;;;;;;;;21.44;65.84;101827.06;4970268;28;19934;-78
2022/09/04 09:08:44;;;;;;;;;;;;;;;21.63;65.68;101828.34;4978075;28;19930;-80
2022/09/04 09:11:29;;;;;;;;;;;;;;;21.81;65.14;101834.16;4979350;28;20012;-79
2022/09/04 09:14:13;;;;;;;;;;;;;;;21.99;64.95;101823.78;4978035;28;19926;-80
2022/09/04 09:16:42;;;;;;;;;;;;;;;22.11;64.28;101825.50;5011438;28;19929;-80
2022/09/04 09:19:09;;;;;;;;;;;;;;;22.21;64.38;101828.31;5009830;28;21443;-79
2022/09/04 09:21:49;;;;;;;;;;;;;;;22.33;64.33;101821.06;4979929;28;19926;-77
2022/09/04 09:24:24;;;;;;;;;;;;;;;22.42;64.20;101819.50;5010995;28;19926;-81
2022/09/04 09:27:09;;;;;;;;;;;;;;;22.54;63.00;101825.75;5013029;28;19925;-84
2022/09/04 09:29:53;;;;;;;;;;;;;;;22.68;63.30;101826.47;5014239;28;19921;-80
2022/09/04 09:32:38;;;;;;;;;;;;;;;22.77;63.22;101821.16;4984360;28;20523;-81
2022/09/04 09:35:07;;;;;;;;;;;;;;;22.87;63.27;101826.66;4996512;28;19970;-81
2022/09/04 09:37:33;;;;;;;;;;;;;;;22.91;62.23;101829.97;4984151;28;20582;-80
2022/09/04 09:40:11;;;;;;;;;;;;;;;22.93;62.33;101827.97;4983590;28;19930;-80
2022/09/04 09:43:03;;;;;;;;;;;;;;;22.95;62.44;101827.88;5015314;28;20035;-78
2022/09/04 09:45:43;;;;;;;;;;;;;;;22.96;62.70;101824.19;4988285;28;19937;-79
2022/09/04 09:48:14;;;;;;;;;;;;;;;22.98;62.64;101822.22;4983273;28;19925;-79
2022/09/04 09:50:59;;;;;;;;;;;;;;;23.02;63.46;101820.97;4981895;28;19933;-79
2022/09/04 09:53:30;;;;;;;;;;;;;;;23.06;63.08;101817.03;5014544;28;19969;-80
2022/09/04 09:55:56;;;;;;;;;;;;;;;23.05;63.47;101820.72;4983558;28;19926;-80
2022/09/04 09:58:24;;;;;;;;;;;;;;;23.06;63.00;101819.75;4983410;28;19930;-81
2022/09/04 10:00:49;;;;;;;;;;;;;;;23.09;62.74;101824.03;4982964;28;20156;-80
2022/09/04 10:03:36;;;;;;;;;;;;;;;23.11;62.62;101824.75;4982142;28;20648;-79
2022/09/04 10:06:11;;;;;;;;;;;;;;;23.11;62.37;101828.31;5013240;28;19937;-81
2022/09/04 10:08:56;;;;;;;;;;;;;;;23.11;62.06;101817.53;5013155;28;21330;-82
2022/09/04 10:11:24;;;;;;;;;;;;;;;23.08;61.94;101827.72;5013287;28;19937;-81
2022/09/04 10:14:08;;;;;;;;;;;;;;;23.03;62.49;101822.69;4983273;28;19930;-81
2022/09/04 10:16:33;;;;;;;;;;;;;;;23.01;63.25;101825.53;5011549;28;20439;-81
2022/09/04 10:19:11;;;;;;;;;;;;;;;23.04;63.19;101817.16;4979627;28;19964;-81
2022/09/04 10:21:55;;;;;;;;;;;;;;;23.08;62.36;101823.16;4983549;28;20344;-79
2022/09/04 10:24:40;;;;;;;;;;;;;;;23.16;63.00;101823.38;4994011;28;19925;-79
2022/09/04 10:27:12;;;;;;;;;;;;;;;23.23;62.58;101821.03;5012488;28;19925;-80
2022/09/04 10:29:53;;;;;;;;;;;;;;;23.30;61.98;101818.66;5011082;28;20342;-78
2022/09/04 10:32:31;;;;;;;;;;;;;;;23.36;61.50;101817.31;4982717;28;19929;-79
2022/09/04 10:34:57;;;;;;;;;;;;;;;23.38;60.96;101824.31;4982589;28;19930;-79
2022/09/04 10:37:45;;;;;;;;;;;;;;;23.43;59.94;101816.63;5013271;28;19937;-78
2022/09/04 10:40:39;;;;;;;;;;;;;;;23.49;61.27;101817.13;5013138;28;19952;-78
2022/09/04 10:43:13;;;;;;;;;;;;;;;23.50;60.98;101817.00;4982142;28;19929;-77
2022/09/04 10:45:41;;;;;;;;;;;;;;;23.53;59.82;101821.28;4980308;28;19933;-77
2022/09/04 10:48:13;;;;;;;;;;;;;;;23.55;60.63;101816.59;4982165;28;20000;-77
2022/09/04 10:50:57;;;;;;;;;;;;;;;23.62;61.02;101819.63;4981962;28;19930;-77
2022/09/04 10:53:58;;;;;;;;;;;;;;;23.68;59.75;101819.06;5013579;28;19929;-77
2022/09/04 10:56:28;;;;;;;;;;;;;;;23.74;59.99;101818.53;4977108;28;20661;-77
2022/09/04 10:59:09;;;;;;;;;;;;;;;23.78;59.95;101821.84;5009034;28;19933;-77
2022/09/04 11:01:54;;;;;;;;;;;;;;;23.81;60.54;101824.28;4981197;28;19965;-78
2022/09/04 11:04:37;;;;;;;;;;;;;;;23.85;59.68;101823.00;4981683;28;20013;-76
2022/09/04 11:07:03;;;;;;;;;;;;;;;23.92;59.52;101821.53;4981489;28;19933;-76
2022/09/04 11:09:28;;;;;;;;;;;;;;;23.98;59.37;101820.94;4981053;28;19937;-76
2022/09/04 11:11:54;;;;;;;;;;;;;;;24.05;58.82;101817.72;4981557;28;20392;-75
2022/09/04 11:14:39;;;;;;;;;;;;;;;24.12;58.96;101817.06;4980880;28;19930;-76
2022/09/04 11:17:13;;;;;;;;;;;;;;;24.14;58.65;101816.94;4994245;28;19933;-80
2022/09/04 11:19:42;;;;;;;;;;;;;;;24.17;58.75;101823.94;4980451;28;19980;-77
2022/09/04 11:22:11;;;;;;;;;;;;;;;24.20;58.34;101819.13;4993816;28;20554;-77
2022/09/04 11:24:46;;;;;;;;;;;;;;;24.23;58.79;101821.53;4981040;28;19977;-76
2022/09/04 11:27:19;;;;;;;;;;;;;;;24.22;58.86;101824.34;5012493;28;19965;-76
2022/09/04 11:29:44;;;;;;;;;;;;;;;24.26;58.80;101820.41;5009907;28;20023;-76
2022/09/04 11:32:12;;;;;;;;;;;;;;;24.33;58.57;101823.41;4980331;28;20009;-77
2022/09/04 11:34:54;;;;;;;;;;;;;;;24.40;58.19;101819.19;4980685;28;19930;-78
2022/09/04 11:37:37;;;;;;;;;;;;;;;24.41;57.77;101818.19;4980946;28;19930;-79
2022/09/04 11:40:38;;;;;;;;;;;;;;;24.46;57.56;101823.19;5011379;28;19930;-79
2022/09/04 11:43:22;;;;;;;;;;;;;;;24.48;58.15;101822.06;4923465;29;19961;-77
2022/09/04 11:45:55;;;;;;;;;;;;;;;24.49;57.76;101817.47;4975075;28;19930;-80
2022/09/04 11:48:41;;;;;;;;;;;;;;;24.52;58.80;101818.06;5011584;28;20257;-80
2022/09/04 11:51:33;;;;;;;;;;;;;;;24.54;58.13;101826.91;4976318;28;19932;-79
2022/09/04 11:54:01;;;;;;;;;;;;;;;24.58;57.84;101826.63;4979807;28;19992;-78
2022/09/04 11:56:48;;;;;;;;;;;;;;;24.63;58.08;101821.66;4980264;28;20908;-79
2022/09/04 11:59:17;;;;;;;;;;;;;;;24.66;57.05;101824.06;5010973;28;19926;-80
2022/09/04 12:01:51;;;;;;;;;;;;;;;24.69;57.50;101824.66;4980160;28;19936;-80
2022/09/04 12:04:27;;;;;;;;;;;;;;;24.76;57.71;101822.25;4980131;28;20056;-80
2022/09/04 12:07:12;;;;;;;;;;;;;;;24.76;57.61;101819.53;4980762;28;19937;-79
2022/09/04 12:09:38;;;;;;;;;;;;;;;24.77;57.95;101826.66;4980189;28;19936;-80
2022/09/04 12:12:06;;;;;;;;;;;;;;;24.78;58.00;101824.81;4980360;28;19925;-80
2022/09/04 12:14:51;;;;;;;;;;;;;;;24.76;57.42;101824.97;4978830;28;19956;-80
2022/09/04 12:17:46;;;;;;;;;;;;;;;24.83;57.64;101830.69;4979569;28;20383;-80
2022/09/04 12:20:30;;;;;;;;;;;;;;;24.89;57.09;101832.00;4967087;28;19936;-80
2022/09/04 12:22:56;;;;;;;;;;;;;;;24.90;57.08;101828.28;5011172;28;19961;-82
2022/09/04 12:25:27;;;;;;;;;;;;;;;24.92;57.71;101823.56;4979383;28;20419;-82
2022/09/04 12:28:02;;;;;;;;;;;;;;;24.96;57.91;101830.44;4980149;28;19933;-80
2022/09/04 12:30:48;;;;;;;;;;;;;;;24.98;56.82;101819.44;4978283;28;20462;-81
2022/09/04 12:33:18;;;;;;;;;;;;;;;25.07;57.21;101832.97;4952323;28;19941;-81
2022/09/04 12:35:56;;;;;;;;;;;;;;;25.10;57.33;101831.84;4991767;28;20125;-78
2022/09/04 12:38:28;;;;;;;;;;;;;;;25.14;57.49;101832.41;4991696;28;20834;-80
2022/09/04 12:41:07;;;;;;;;;;;;;;;25.12;56.95;101832.59;4979600;28;19936;-79
2022/09/04 12:43:44;;;;;;;;;;;;;;;25.09;57.00;101824.72;4992018;28;20300;-78
2022/09/04 12:46:18;;;;;;;;;;;;;;;25.08;56.71;101825.72;5009683;28;20388;-79
2022/09/04 12:48:56;;;;;;;;;;;;;;;25.08;57.21;101837.44;5010579;28;19929;-79
2022/09/04 12:51:24;;;;;;;;;;;;;;;25.09;56.37;101831.00;4991523;28;19933;-80
2022/09/04 12:53:49;;;;;;;;;;;;;;;25.08;56.32;101831.16;5010207;28;19937;-80
2022/09/04 12:56:25;;;;;;;;;;;;;;;25.09;56.70;101840.97;5010518;28;19926;-81
2022/09/04 12:58:58;;;;;;;;;;;;;;;25.12;57.02;101829.00;4978855;28;19926;-81
2022/09/04 13:01:32;;;;;;;;;;;;;;;25.14;56.69;101837.84;5007345;28;19936;-81
2022/09/04 13:04:24;;;;;;;;;;;;;;;25.12;56.08;101834.44;4979070;28;20071;-80
2022/09/04 13:07:13;;;;;;;;;;;;;;;25.12;55.98;101834.44;5009215;28;19929;-80
2022/09/04 13:09:45;;;;;;;;;;;;;;;25.08;56.28;101834.72;4990430;28;19933;-81
2022/09/04 13:12:10;;;;;;;;;;;;;;;25.11;56.14;101838.97;4991494;28;20300;-81
2022/09/04 13:14:49;;;;;;;;;;;;;;;25.15;56.29;101829.56;4979064;28;19961;-81
2022/09/04 13:17:16;;;;;;;;;;;;;;;25.21;56.84;101842.56;4978278;28;20443;-79
2022/09/04 13:19:45;;;;;;;;;;;;;;;25.25;56.46;101837.72;4978650;28;19933;-78